sensor_id;sensor_type;location;lat;lon;timestamp;P1;durP1;ratioP1;P2;durP2;ratioP2
36001;SDS011;22070;50.922;5.430;2022-08-02T00:00:15;6.57;;;3.27;;
36001;SDS011;22070;50.922;5.430;2022-08-02T00:02:44;8.57;;;3.40;;
36001;SDS011;22070;50.922;5.430;2022-08-02T00:05:11;11.43;;;3.45;;
36001;SDS011;22070;50.922;5.430;2022-08-02T00:07:37;5.13;;;3.15;;
36001;SDS011;22070;50.922;5.430;2022-08-02T00:10:04;7.90;;;3.10;;
36001;SDS011;22070;50.922;5.430;2022-08-02T00:14:56;7.07;;;3.00;;
36001;SDS011;22070;50.922;5.430;2022-08-02T00:17:21;7.03;;;3.17;;
36001;SDS011;22070;50.922;5.430;2022-08-02T00:19:47;7.68;;;2.78;;
36001;SDS011;22070;50.922;5.430;2022-08-02T00:22:13;5.67;;;2.07;;
36001;SDS011;22070;50.922;5.430;2022-08-02T00:24:38;4.10;;;2.83;;
36001;SDS011;22070;50.922;5.430;2022-08-02T00:27:04;5.10;;;2.77;;
36001;SDS011;22070;50.922;5.430;2022-08-02T00:29:32;5.32;;;2.55;;
36001;SDS011;22070;50.922;5.430;2022-08-02T00:31:59;7.30;;;2.83;;
36001;SDS011;22070;50.922;5.430;2022-08-02T00:34:25;6.87;;;2.80;;
36001;SDS011;22070;50.922;5.430;2022-08-02T00:36:50;4.57;;;2.92;;
36001;SDS011;22070;50.922;5.430;2022-08-02T00:39:16;6.23;;;3.17;;
36001;SDS011;22070;50.922;5.430;2022-08-02T00:41:51;9.80;;;3.38;;
36001;SDS011;22070;50.922;5.430;2022-08-02T00:44:18;6.80;;;3.10;;
36001;SDS011;22070;50.922;5.430;2022-08-02T00:46:45;5.32;;;2.75;;
36001;SDS011;22070;50.922;5.430;2022-08-02T00:49:11;7.80;;;3.00;;
36001;SDS011;22070;50.922;5.430;2022-08-02T00:51:38;6.90;;;3.30;;
36001;SDS011;22070;50.922;5.430;2022-08-02T00:54:04;6.22;;;2.85;;
36001;SDS011;22070;50.922;5.430;2022-08-02T00:56:30;5.73;;;2.90;;
36001;SDS011;22070;50.922;5.430;2022-08-02T00:58:56;6.17;;;3.10;;
36001;SDS011;22070;50.922;5.430;2022-08-02T01:01:22;6.00;;;3.10;;
36001;SDS011;22070;50.922;5.430;2022-08-02T01:04:06;4.60;;;3.03;;
36001;SDS011;22070;50.922;5.430;2022-08-02T01:06:34;5.93;;;3.20;;
36001;SDS011;22070;50.922;5.430;2022-08-02T01:09:01;6.30;;;3.33;;
36001;SDS011;22070;50.922;5.430;2022-08-02T01:11:28;10.40;;;3.08;;
36001;SDS011;22070;50.922;5.430;2022-08-02T01:13:55;3.25;;;2.95;;
36001;SDS011;22070;50.922;5.430;2022-08-02T01:16:35;6.68;;;3.35;;
36001;SDS011;22070;50.922;5.430;2022-08-02T01:22:05;7.00;;;3.40;;
36001;SDS011;22070;50.922;5.430;2022-08-02T01:27:50;5.00;;;2.90;;
36001;SDS011;22070;50.922;5.430;2022-08-02T01:30:48;5.57;;;3.42;;
36001;SDS011;22070;50.922;5.430;2022-08-02T01:33:24;5.78;;;3.30;;
36001;SDS011;22070;50.922;5.430;2022-08-02T01:35:52;6.15;;;3.38;;
36001;SDS011;22070;50.922;5.430;2022-08-02T01:38:31;4.63;;;3.78;;
36001;SDS011;22070;50.922;5.430;2022-08-02T01:40:59;4.28;;;3.20;;
36001;SDS011;22070;50.922;5.430;2022-08-02T01:43:27;3.90;;;3.03;;
36001;SDS011;22070;50.922;5.430;2022-08-02T01:45:55;5.57;;;2.92;;
36001;SDS011;22070;50.922;5.430;2022-08-02T01:48:24;6.82;;;2.95;;
36001;SDS011;22070;50.922;5.430;2022-08-02T01:50:52;9.85;;;3.42;;
36001;SDS011;22070;50.922;5.430;2022-08-02T01:53:19;6.75;;;3.28;;
36001;SDS011;22070;50.922;5.430;2022-08-02T01:55:46;4.13;;;2.78;;
36001;SDS011;22070;50.922;5.430;2022-08-02T01:58:16;3.88;;;2.95;;
36001;SDS011;22070;50.922;5.430;2022-08-02T02:00:43;5.97;;;3.30;;
36001;SDS011;22070;50.922;5.430;2022-08-02T02:03:17;6.28;;;3.30;;
36001;SDS011;22070;50.922;5.430;2022-08-02T02:05:46;6.88;;;3.30;;
36001;SDS011;22070;50.922;5.430;2022-08-02T02:08:13;6.75;;;2.90;;
36001;SDS011;22070;50.922;5.430;2022-08-02T02:10:41;11.65;;;3.38;;
36001;SDS011;22070;50.922;5.430;2022-08-02T02:13:14;8.68;;;3.20;;
36001;SDS011;22070;50.922;5.430;2022-08-02T02:15:43;6.57;;;3.22;;
36001;SDS011;22070;50.922;5.430;2022-08-02T02:18:12;7.28;;;3.33;;
36001;SDS011;22070;50.922;5.430;2022-08-02T02:20:45;7.25;;;3.22;;
36001;SDS011;22070;50.922;5.430;2022-08-02T02:23:12;6.93;;;3.20;;
36001;SDS011;22070;50.922;5.430;2022-08-02T02:25:39;6.25;;;3.60;;
36001;SDS011;22070;50.922;5.430;2022-08-02T02:28:07;5.57;;;3.22;;
36001;SDS011;22070;50.922;5.430;2022-08-02T02:30:39;11.27;;;4.00;;
36001;SDS011;22070;50.922;5.430;2022-08-02T02:33:10;7.10;;;3.88;;
36001;SDS011;22070;50.922;5.430;2022-08-02T02:35:37;8.68;;;3.42;;
36001;SDS011;22070;50.922;5.430;2022-08-02T02:38:07;6.80;;;3.55;;
36001;SDS011;22070;50.922;5.430;2022-08-02T02:40:36;5.13;;;3.35;;
36001;SDS011;22070;50.922;5.430;2022-08-02T02:43:02;5.93;;;3.72;;
36001;SDS011;22070;50.922;5.430;2022-08-02T02:45:30;7.95;;;3.85;;
36001;SDS011;22070;50.922;5.430;2022-08-02T02:47:57;5.78;;;3.40;;
36001;SDS011;22070;50.922;5.430;2022-08-02T02:50:24;5.15;;;3.50;;
36001;SDS011;22070;50.922;5.430;2022-08-02T02:52:51;6.40;;;3.60;;
36001;SDS011;22070;50.922;5.430;2022-08-02T02:55:17;5.82;;;3.83;;
36001;SDS011;22070;50.922;5.430;2022-08-02T02:57:45;11.00;;;3.97;;
36001;SDS011;22070;50.922;5.430;2022-08-02T03:00:12;9.18;;;4.20;;
36001;SDS011;22070;50.922;5.430;2022-08-02T03:02:39;8.15;;;3.95;;
36001;SDS011;22070;50.922;5.430;2022-08-02T03:05:07;7.55;;;4.10;;
36001;SDS011;22070;50.922;5.430;2022-08-02T03:07:34;10.63;;;4.78;;
36001;SDS011;22070;50.922;5.430;2022-08-02T03:10:04;7.97;;;4.82;;
36001;SDS011;22070;50.922;5.430;2022-08-02T03:12:31;5.18;;;3.83;;
36001;SDS011;22070;50.922;5.430;2022-08-02T03:14:59;11.32;;;4.13;;
36001;SDS011;22070;50.922;5.430;2022-08-02T03:17:41;9.45;;;4.50;;
36001;SDS011;22070;50.922;5.430;2022-08-02T03:20:09;9.57;;;3.92;;
36001;SDS011;22070;50.922;5.430;2022-08-02T03:22:37;6.57;;;4.32;;
36001;SDS011;22070;50.922;5.430;2022-08-02T03:25:03;8.93;;;4.37;;
36001;SDS011;22070;50.922;5.430;2022-08-02T03:27:30;5.50;;;4.57;;
36001;SDS011;22070;50.922;5.430;2022-08-02T03:29:55;7.50;;;4.50;;
36001;SDS011;22070;50.922;5.430;2022-08-02T03:32:21;10.20;;;4.93;;
36001;SDS011;22070;50.922;5.430;2022-08-02T03:34:47;9.97;;;3.73;;
36001;SDS011;22070;50.922;5.430;2022-08-02T03:37:12;9.83;;;5.33;;
36001;SDS011;22070;50.922;5.430;2022-08-02T03:39:39;8.77;;;4.80;;
36001;SDS011;22070;50.922;5.430;2022-08-02T03:42:05;6.80;;;3.53;;
36001;SDS011;22070;50.922;5.430;2022-08-02T03:44:32;5.55;;;4.20;;
36001;SDS011;22070;50.922;5.430;2022-08-02T03:46:59;5.95;;;4.07;;
36001;SDS011;22070;50.922;5.430;2022-08-02T03:49:25;9.38;;;4.57;;
36001;SDS011;22070;50.922;5.430;2022-08-02T03:51:53;5.60;;;4.95;;
36001;SDS011;22070;50.922;5.430;2022-08-02T03:54:19;9.23;;;4.78;;
36001;SDS011;22070;50.922;5.430;2022-08-02T03:56:46;8.05;;;5.10;;
36001;SDS011;22070;50.922;5.430;2022-08-02T03:59:12;11.47;;;5.50;;
36001;SDS011;22070;50.922;5.430;2022-08-02T04:01:38;4.90;;;3.90;;
36001;SDS011;22070;50.922;5.430;2022-08-02T04:04:05;7.30;;;4.63;;
36001;SDS011;22070;50.922;5.430;2022-08-02T04:06:32;9.52;;;4.70;;
36001;SDS011;22070;50.922;5.430;2022-08-02T04:08:58;4.77;;;4.33;;
36001;SDS011;22070;50.922;5.430;2022-08-02T04:11:23;6.68;;;4.68;;
36001;SDS011;22070;50.922;5.430;2022-08-02T04:13:56;6.18;;;4.68;;
36001;SDS011;22070;50.922;5.430;2022-08-02T04:19:02;7.45;;;5.10;;
36001;SDS011;22070;50.922;5.430;2022-08-02T04:21:36;7.93;;;4.40;;
36001;SDS011;22070;50.922;5.430;2022-08-02T04:24:04;7.25;;;4.82;;
36001;SDS011;22070;50.922;5.430;2022-08-02T04:26:33;6.95;;;4.32;;
36001;SDS011;22070;50.922;5.430;2022-08-02T04:29:00;6.72;;;4.60;;
36001;SDS011;22070;50.922;5.430;2022-08-02T04:31:26;7.78;;;3.47;;
36001;SDS011;22070;50.922;5.430;2022-08-02T04:33:53;11.07;;;5.18;;
36001;SDS011;22070;50.922;5.430;2022-08-02T04:36:19;7.80;;;4.85;;
36001;SDS011;22070;50.922;5.430;2022-08-02T04:38:47;7.70;;;5.00;;
36001;SDS011;22070;50.922;5.430;2022-08-02T04:41:14;4.95;;;4.30;;
36001;SDS011;22070;50.922;5.430;2022-08-02T04:43:40;8.10;;;4.70;;
36001;SDS011;22070;50.922;5.430;2022-08-02T04:46:05;6.33;;;4.53;;
36001;SDS011;22070;50.922;5.430;2022-08-02T04:48:31;10.98;;;4.95;;
36001;SDS011;22070;50.922;5.430;2022-08-02T04:50:57;10.33;;;5.67;;
36001;SDS011;22070;50.922;5.430;2022-08-02T04:53:23;8.88;;;6.03;;
36001;SDS011;22070;50.922;5.430;2022-08-02T04:55:49;12.27;;;5.40;;
36001;SDS011;22070;50.922;5.430;2022-08-02T04:58:15;9.07;;;5.95;;
36001;SDS011;22070;50.922;5.430;2022-08-02T05:00:41;6.10;;;5.07;;
36001;SDS011;22070;50.922;5.430;2022-08-02T05:03:06;8.68;;;5.45;;
36001;SDS011;22070;50.922;5.430;2022-08-02T05:05:32;10.23;;;5.80;;
36001;SDS011;22070;50.922;5.430;2022-08-02T05:07:58;8.37;;;5.13;;
36001;SDS011;22070;50.922;5.430;2022-08-02T05:10:24;12.00;;;5.18;;
36001;SDS011;22070;50.922;5.430;2022-08-02T05:12:50;5.27;;;4.30;;
36001;SDS011;22070;50.922;5.430;2022-08-02T05:15:15;7.78;;;5.32;;
36001;SDS011;22070;50.922;5.430;2022-08-02T05:17:43;10.00;;;5.82;;
36001;SDS011;22070;50.922;5.430;2022-08-02T05:20:10;7.15;;;5.68;;
36001;SDS011;22070;50.922;5.430;2022-08-02T05:22:39;12.10;;;5.32;;
36001;SDS011;22070;50.922;5.430;2022-08-02T05:25:05;11.95;;;5.38;;
36001;SDS011;22070;50.922;5.430;2022-08-02T05:27:31;11.90;;;5.95;;
36001;SDS011;22070;50.922;5.430;2022-08-02T05:29:57;10.13;;;6.43;;
36001;SDS011;22070;50.922;5.430;2022-08-02T05:32:23;10.20;;;6.32;;
36001;SDS011;22070;50.922;5.430;2022-08-02T05:34:50;6.88;;;6.15;;
36001;SDS011;22070;50.922;5.430;2022-08-02T05:37:16;10.37;;;6.60;;
36001;SDS011;22070;50.922;5.430;2022-08-02T05:39:42;7.83;;;5.33;;
36001;SDS011;22070;50.922;5.430;2022-08-02T05:42:07;9.57;;;6.00;;
36001;SDS011;22070;50.922;5.430;2022-08-02T05:44:33;7.80;;;5.50;;
36001;SDS011;22070;50.922;5.430;2022-08-02T05:46:59;8.80;;;5.23;;
36001;SDS011;22070;50.922;5.430;2022-08-02T05:49:24;6.40;;;5.50;;
36001;SDS011;22070;50.922;5.430;2022-08-02T05:51:51;9.97;;;5.70;;
36001;SDS011;22070;50.922;5.430;2022-08-02T05:54:46;7.90;;;5.30;;
36001;SDS011;22070;50.922;5.430;2022-08-02T05:57:22;8.40;;;5.20;;
36001;SDS011;22070;50.922;5.430;2022-08-02T06:00:11;7.40;;;5.25;;
36001;SDS011;22070;50.922;5.430;2022-08-02T06:07:37;8.45;;;4.72;;
36001;SDS011;22070;50.922;5.430;2022-08-02T06:10:09;8.20;;;4.57;;
36001;SDS011;22070;50.922;5.430;2022-08-02T06:15:13;5.43;;;4.55;;
36001;SDS011;22070;50.922;5.430;2022-08-02T06:17:41;5.80;;;5.20;;
36001;SDS011;22070;50.922;5.430;2022-08-02T06:20:08;6.75;;;5.05;;
36001;SDS011;22070;50.922;5.430;2022-08-02T06:22:35;5.78;;;4.32;;
36001;SDS011;22070;50.922;5.430;2022-08-02T06:25:12;6.63;;;4.78;;
36001;SDS011;22070;50.922;5.430;2022-08-02T06:27:38;6.80;;;4.85;;
36001;SDS011;22070;50.922;5.430;2022-08-02T06:32:32;7.63;;;4.47;;
36001;SDS011;22070;50.922;5.430;2022-08-02T06:34:58;6.30;;;4.13;;
36001;SDS011;22070;50.922;5.430;2022-08-02T06:37:40;4.60;;;4.05;;
36001;SDS011;22070;50.922;5.430;2022-08-02T06:40:25;5.97;;;3.90;;
36001;SDS011;22070;50.922;5.430;2022-08-02T06:43:05;8.80;;;4.10;;
36001;SDS011;22070;50.922;5.430;2022-08-02T06:48:07;4.30;;;3.50;;
36001;SDS011;22070;50.922;5.430;2022-08-02T06:50:33;5.35;;;3.80;;
36001;SDS011;22070;50.922;5.430;2022-08-02T06:53:03;4.30;;;3.30;;
36001;SDS011;22070;50.922;5.430;2022-08-02T06:55:30;4.78;;;3.47;;
36001;SDS011;22070;50.922;5.430;2022-08-02T06:57:56;6.35;;;3.22;;
36001;SDS011;22070;50.922;5.430;2022-08-02T07:00:22;5.18;;;3.63;;
36001;SDS011;22070;50.922;5.430;2022-08-02T07:02:48;4.33;;;3.37;;
36001;SDS011;22070;50.922;5.430;2022-08-02T07:05:14;4.43;;;3.23;;
36001;SDS011;22070;50.922;5.430;2022-08-02T07:07:40;4.50;;;3.20;;
36001;SDS011;22070;50.922;5.430;2022-08-02T07:10:06;5.30;;;3.47;;
36001;SDS011;22070;50.922;5.430;2022-08-02T07:12:32;5.80;;;3.28;;
36001;SDS011;22070;50.922;5.430;2022-08-02T07:14:59;3.85;;;3.35;;
36001;SDS011;22070;50.922;5.430;2022-08-02T07:17:26;4.38;;;3.03;;
36001;SDS011;22070;50.922;5.430;2022-08-02T07:22:19;4.85;;;3.30;;
36001;SDS011;22070;50.922;5.430;2022-08-02T07:24:47;5.13;;;2.92;;
36001;SDS011;22070;50.922;5.430;2022-08-02T07:27:13;6.83;;;2.93;;
36001;SDS011;22070;50.922;5.430;2022-08-02T07:29:39;6.23;;;2.97;;
36001;SDS011;22070;50.922;5.430;2022-08-02T07:32:05;5.68;;;2.97;;
36001;SDS011;22070;50.922;5.430;2022-08-02T07:34:31;6.43;;;2.65;;
36001;SDS011;22070;50.922;5.430;2022-08-02T07:36:57;3.37;;;2.10;;
36001;SDS011;22070;50.922;5.430;2022-08-02T07:39:23;2.33;;;2.13;;
36001;SDS011;22070;50.922;5.430;2022-08-02T07:41:49;3.92;;;2.35;;
36001;SDS011;22070;50.922;5.430;2022-08-02T07:44:16;2.70;;;2.10;;
36001;SDS011;22070;50.922;5.430;2022-08-02T07:49:09;3.53;;;1.92;;
36001;SDS011;22070;50.922;5.430;2022-08-02T07:51:34;1.70;;;1.60;;
36001;SDS011;22070;50.922;5.430;2022-08-02T07:54:00;3.77;;;1.70;;
36001;SDS011;22070;50.922;5.430;2022-08-02T07:56:27;6.28;;;2.55;;
36001;SDS011;22070;50.922;5.430;2022-08-02T07:58:52;1.93;;;1.33;;
36001;SDS011;22070;50.922;5.430;2022-08-02T08:01:18;3.30;;;1.40;;
36001;SDS011;22070;50.922;5.430;2022-08-02T08:03:44;2.67;;;1.70;;
36001;SDS011;22070;50.922;5.430;2022-08-02T08:06:10;1.73;;;1.40;;
36001;SDS011;22070;50.922;5.430;2022-08-02T08:08:35;2.27;;;1.47;;
36001;SDS011;22070;50.922;5.430;2022-08-02T08:11:01;2.50;;;1.67;;
36001;SDS011;22070;50.922;5.430;2022-08-02T08:13:27;3.00;;;1.55;;
36001;SDS011;22070;50.922;5.430;2022-08-02T08:15:53;2.10;;;1.60;;
36001;SDS011;22070;50.922;5.430;2022-08-02T08:18:20;1.65;;;1.55;;
36001;SDS011;22070;50.922;5.430;2022-08-02T08:20:46;1.40;;;1.30;;
36001;SDS011;22070;50.922;5.430;2022-08-02T08:23:11;1.70;;;1.60;;
36001;SDS011;22070;50.922;5.430;2022-08-02T08:25:37;2.23;;;1.53;;
36001;SDS011;22070;50.922;5.430;2022-08-02T08:28:03;1.98;;;1.80;;
36001;SDS011;22070;50.922;5.430;2022-08-02T08:30:29;3.80;;;1.93;;
36001;SDS011;22070;50.922;5.430;2022-08-02T08:32:55;1.60;;;1.50;;
36001;SDS011;22070;50.922;5.430;2022-08-02T08:35:21;4.10;;;1.80;;
36001;SDS011;22070;50.922;5.430;2022-08-02T08:37:46;2.03;;;1.63;;
36001;SDS011;22070;50.922;5.430;2022-08-02T08:40:13;1.70;;;1.60;;
36001;SDS011;22070;50.922;5.430;2022-08-02T08:42:39;1.90;;;1.70;;
36001;SDS011;22070;50.922;5.430;2022-08-02T08:45:05;1.60;;;1.50;;
36001;SDS011;22070;50.922;5.430;2022-08-02T08:47:41;1.80;;;1.70;;
36001;SDS011;22070;50.922;5.430;2022-08-02T08:50:08;2.42;;;1.77;;
36001;SDS011;22070;50.922;5.430;2022-08-02T08:52:40;3.85;;;1.73;;
36001;SDS011;22070;50.922;5.430;2022-08-02T08:55:08;4.28;;;1.60;;
36001;SDS011;22070;50.922;5.430;2022-08-02T08:57:37;2.03;;;1.83;;
36001;SDS011;22070;50.922;5.430;2022-08-02T09:00:06;1.90;;;1.67;;
36001;SDS011;22070;50.922;5.430;2022-08-02T09:02:33;2.97;;;1.70;;
36001;SDS011;22070;50.922;5.430;2022-08-02T09:05:00;2.53;;;1.70;;
36001;SDS011;22070;50.922;5.430;2022-08-02T09:07:26;1.70;;;1.60;;
36001;SDS011;22070;50.922;5.430;2022-08-02T09:09:52;2.05;;;1.73;;
36001;SDS011;22070;50.922;5.430;2022-08-02T09:12:18;3.88;;;2.00;;
36001;SDS011;22070;50.922;5.430;2022-08-02T09:14:46;6.68;;;1.70;;
36001;SDS011;22070;50.922;5.430;2022-08-02T09:17:12;2.77;;;1.83;;
36001;SDS011;22070;50.922;5.430;2022-08-02T09:19:38;4.03;;;1.90;;
36001;SDS011;22070;50.922;5.430;2022-08-02T09:22:05;1.92;;;1.70;;
36001;SDS011;22070;50.922;5.430;2022-08-02T09:24:46;2.20;;;1.70;;
36001;SDS011;22070;50.922;5.430;2022-08-02T09:27:14;1.80;;;1.65;;
36001;SDS011;22070;50.922;5.430;2022-08-02T09:29:44;5.47;;;1.92;;
36001;SDS011;22070;50.922;5.430;2022-08-02T09:32:11;2.17;;;1.70;;
36001;SDS011;22070;50.922;5.430;2022-08-02T09:34:47;3.13;;;1.97;;
36001;SDS011;22070;50.922;5.430;2022-08-02T09:37:21;3.38;;;1.98;;
36001;SDS011;22070;50.922;5.430;2022-08-02T09:42:16;1.95;;;1.85;;
36001;SDS011;22070;50.922;5.430;2022-08-02T09:44:52;15.93;;;2.13;;
36001;SDS011;22070;50.922;5.430;2022-08-02T09:47:19;2.17;;;1.67;;
36001;SDS011;22070;50.922;5.430;2022-08-02T09:49:45;7.40;;;1.97;;
36001;SDS011;22070;50.922;5.430;2022-08-02T09:52:12;2.97;;;2.10;;
36001;SDS011;22070;50.922;5.430;2022-08-02T09:54:39;2.60;;;2.40;;
36001;SDS011;22070;50.922;5.430;2022-08-02T09:57:05;1.90;;;1.80;;
36001;SDS011;22070;50.922;5.430;2022-08-02T10:01:57;2.85;;;2.30;;
36001;SDS011;22070;50.922;5.430;2022-08-02T10:04:25;3.92;;;2.08;;
36001;SDS011;22070;50.922;5.430;2022-08-02T10:06:55;2.33;;;2.13;;
36001;SDS011;22070;50.922;5.430;2022-08-02T10:09:23;2.65;;;2.17;;
36001;SDS011;22070;50.922;5.430;2022-08-02T10:11:49;2.38;;;2.28;;
36001;SDS011;22070;50.922;5.430;2022-08-02T10:14:15;2.55;;;2.35;;
36001;SDS011;22070;50.922;5.430;2022-08-02T10:16:43;2.95;;;1.80;;
36001;SDS011;22070;50.922;5.430;2022-08-02T10:19:09;3.63;;;2.40;;
36001;SDS011;22070;50.922;5.430;2022-08-02T10:24:05;5.45;;;2.38;;
36001;SDS011;22070;50.922;5.430;2022-08-02T10:26:33;2.35;;;2.08;;
36001;SDS011;22070;50.922;5.430;2022-08-02T10:29:01;2.53;;;2.38;;
36001;SDS011;22070;50.922;5.430;2022-08-02T10:31:29;2.53;;;2.30;;
36001;SDS011;22070;50.922;5.430;2022-08-02T10:34:01;4.65;;;2.50;;
36001;SDS011;22070;50.922;5.430;2022-08-02T10:36:31;3.22;;;2.30;;
36001;SDS011;22070;50.922;5.430;2022-08-02T10:39:00;3.50;;;2.03;;
36001;SDS011;22070;50.922;5.430;2022-08-02T10:44:25;3.80;;;2.10;;
36001;SDS011;22070;50.922;5.430;2022-08-02T10:46:51;2.85;;;2.10;;
36001;SDS011;22070;50.922;5.430;2022-08-02T10:49:46;2.30;;;1.85;;
36001;SDS011;22070;50.922;5.430;2022-08-02T10:52:12;2.03;;;1.67;;
36001;SDS011;22070;50.922;5.430;2022-08-02T10:54:42;2.13;;;1.92;;
36001;SDS011;22070;50.922;5.430;2022-08-02T10:57:30;2.75;;;1.88;;
36001;SDS011;22070;50.922;5.430;2022-08-02T11:00:09;2.50;;;1.63;;
36001;SDS011;22070;50.922;5.430;2022-08-02T11:07:37;1.88;;;1.70;;
36001;SDS011;22070;50.922;5.430;2022-08-02T11:13:02;2.33;;;1.77;;
36001;SDS011;22070;50.922;5.430;2022-08-02T11:15:29;1.63;;;1.50;;
36001;SDS011;22070;50.922;5.430;2022-08-02T11:18:11;2.97;;;1.90;;
36001;SDS011;22070;50.922;5.430;2022-08-02T11:20:37;1.70;;;1.60;;
36001;SDS011;22070;50.922;5.430;2022-08-02T11:23:32;2.67;;;1.50;;
36001;SDS011;22070;50.922;5.430;2022-08-02T11:26:02;1.70;;;1.60;;
36001;SDS011;22070;50.922;5.430;2022-08-02T11:28:48;2.22;;;1.80;;
36001;SDS011;22070;50.922;5.430;2022-08-02T11:31:14;3.17;;;1.52;;
36001;SDS011;22070;50.922;5.430;2022-08-02T11:36:06;3.20;;;1.65;;
36001;SDS011;22070;50.922;5.430;2022-08-02T11:38:32;4.97;;;1.50;;
36001;SDS011;22070;50.922;5.430;2022-08-02T11:40:58;1.95;;;1.42;;
36001;SDS011;22070;50.922;5.430;2022-08-02T11:43:27;2.40;;;1.33;;
36001;SDS011;22070;50.922;5.430;2022-08-02T11:45:54;3.17;;;1.58;;
36001;SDS011;22070;50.922;5.430;2022-08-02T11:51:06;1.60;;;1.40;;
36001;SDS011;22070;50.922;5.430;2022-08-02T11:53:43;1.63;;;1.52;;
36001;SDS011;22070;50.922;5.430;2022-08-02T11:56:29;1.83;;;1.50;;
36001;SDS011;22070;50.922;5.430;2022-08-02T12:01:27;1.65;;;1.55;;
36001;SDS011;22070;50.922;5.430;2022-08-02T12:03:54;1.92;;;1.50;;
36001;SDS011;22070;50.922;5.430;2022-08-02T12:06:23;2.45;;;1.40;;
36001;SDS011;22070;50.922;5.430;2022-08-02T12:08:49;1.55;;;1.40;;
36001;SDS011;22070;50.922;5.430;2022-08-02T12:11:18;1.47;;;1.30;;
36001;SDS011;22070;50.922;5.430;2022-08-02T12:13:44;1.63;;;1.42;;
36001;SDS011;22070;50.922;5.430;2022-08-02T12:16:11;3.58;;;1.48;;
36001;SDS011;22070;50.922;5.430;2022-08-02T12:18:56;4.80;;;1.50;;
36001;SDS011;22070;50.922;5.430;2022-08-02T12:21:40;3.85;;;1.48;;
36001;SDS011;22070;50.922;5.430;2022-08-02T12:24:06;2.90;;;1.30;;
36001;SDS011;22070;50.922;5.430;2022-08-02T12:26:42;1.30;;;1.20;;
36001;SDS011;22070;50.922;5.430;2022-08-02T12:29:09;1.40;;;1.30;;
36001;SDS011;22070;50.922;5.430;2022-08-02T12:34:10;2.15;;;1.30;;
36001;SDS011;22070;50.922;5.430;2022-08-02T12:36:39;1.80;;;1.10;;
36001;SDS011;22070;50.922;5.430;2022-08-02T12:39:09;1.80;;;1.23;;
36001;SDS011;22070;50.922;5.430;2022-08-02T12:41:37;2.65;;;1.38;;
36001;SDS011;22070;50.922;5.430;2022-08-02T12:44:03;1.73;;;1.30;;
36001;SDS011;22070;50.922;5.430;2022-08-02T12:46:29;1.67;;;1.30;;
36001;SDS011;22070;50.922;5.430;2022-08-02T12:48:56;2.15;;;1.52;;
36001;SDS011;22070;50.922;5.430;2022-08-02T12:51:25;2.50;;;1.40;;
36001;SDS011;22070;50.922;5.430;2022-08-02T12:53:53;1.50;;;1.30;;
36001;SDS011;22070;50.922;5.430;2022-08-02T12:56:36;2.00;;;1.42;;
36001;SDS011;22070;50.922;5.430;2022-08-02T12:59:03;1.17;;;1.08;;
36001;SDS011;22070;50.922;5.430;2022-08-02T13:01:29;2.10;;;1.30;;
36001;SDS011;22070;50.922;5.430;2022-08-02T13:03:55;2.03;;;1.30;;
36001;SDS011;22070;50.922;5.430;2022-08-02T13:06:22;2.55;;;1.00;;
36001;SDS011;22070;50.922;5.430;2022-08-02T13:08:48;5.03;;;1.70;;
36001;SDS011;22070;50.922;5.430;2022-08-02T13:11:14;2.60;;;1.35;;
36001;SDS011;22070;50.922;5.430;2022-08-02T13:13:40;2.83;;;1.10;;
36001;SDS011;22070;50.922;5.430;2022-08-02T13:16:06;0.98;;;0.98;;
36001;SDS011;22070;50.922;5.430;2022-08-02T13:18:34;0.98;;;0.98;;
36001;SDS011;22070;50.922;5.430;2022-08-02T13:21:00;2.08;;;1.45;;
36001;SDS011;22070;50.922;5.430;2022-08-02T13:23:28;1.35;;;1.25;;
36001;SDS011;22070;50.922;5.430;2022-08-02T13:25:54;2.67;;;1.20;;
36001;SDS011;22070;50.922;5.430;2022-08-02T13:28:20;3.20;;;1.10;;
36001;SDS011;22070;50.922;5.430;2022-08-02T13:30:46;1.48;;;1.20;;
36001;SDS011;22070;50.922;5.430;2022-08-02T13:33:12;2.90;;;1.10;;
36001;SDS011;22070;50.922;5.430;2022-08-02T13:35:38;1.05;;;0.95;;
36001;SDS011;22070;50.922;5.430;2022-08-02T13:38:04;1.40;;;1.35;;
36001;SDS011;22070;50.922;5.430;2022-08-02T13:40:31;2.45;;;1.10;;
36001;SDS011;22070;50.922;5.430;2022-08-02T13:45:22;3.05;;;1.08;;
36001;SDS011;22070;50.922;5.430;2022-08-02T13:47:48;1.30;;;1.20;;
36001;SDS011;22070;50.922;5.430;2022-08-02T13:50:13;1.38;;;1.27;;
36001;SDS011;22070;50.922;5.430;2022-08-02T13:52:40;1.67;;;1.20;;
36001;SDS011;22070;50.922;5.430;2022-08-02T13:55:05;2.22;;;0.90;;
36001;SDS011;22070;50.922;5.430;2022-08-02T13:59:57;1.20;;;1.10;;
36001;SDS011;22070;50.922;5.430;2022-08-02T14:02:23;3.80;;;1.20;;
36001;SDS011;22070;50.922;5.430;2022-08-02T14:04:49;3.88;;;1.20;;
36001;SDS011;22070;50.922;5.430;2022-08-02T14:07:14;1.65;;;1.20;;
36001;SDS011;22070;50.922;5.430;2022-08-02T14:09:40;1.38;;;1.27;;
36001;SDS011;22070;50.922;5.430;2022-08-02T14:12:07;3.35;;;1.40;;
36001;SDS011;22070;50.922;5.430;2022-08-02T14:14:34;1.73;;;1.25;;
36001;SDS011;22070;50.922;5.430;2022-08-02T14:17:00;3.42;;;1.10;;
36001;SDS011;22070;50.922;5.430;2022-08-02T14:19:26;4.22;;;1.10;;
36001;SDS011;22070;50.922;5.430;2022-08-02T14:21:51;4.00;;;1.70;;
36001;SDS011;22070;50.922;5.430;2022-08-02T14:24:18;1.60;;;1.17;;
36001;SDS011;22070;50.922;5.430;2022-08-02T14:26:46;1.25;;;1.20;;
36001;SDS011;22070;50.922;5.430;2022-08-02T14:29:12;1.02;;;1.02;;
36001;SDS011;22070;50.922;5.430;2022-08-02T14:31:39;1.30;;;1.20;;
36001;SDS011;22070;50.922;5.430;2022-08-02T14:34:05;1.80;;;1.13;;
36001;SDS011;22070;50.922;5.430;2022-08-02T14:36:31;2.30;;;1.30;;
36001;SDS011;22070;50.922;5.430;2022-08-02T14:38:56;1.92;;;1.20;;
36001;SDS011;22070;50.922;5.430;2022-08-02T14:41:22;2.05;;;1.30;;
36001;SDS011;22070;50.922;5.430;2022-08-02T14:43:48;3.60;;;1.48;;
36001;SDS011;22070;50.922;5.430;2022-08-02T14:46:29;3.00;;;1.27;;
36001;SDS011;22070;50.922;5.430;2022-08-02T14:48:56;4.22;;;1.60;;
36001;SDS011;22070;50.922;5.430;2022-08-02T14:51:22;3.70;;;1.45;;
36001;SDS011;22070;50.922;5.430;2022-08-02T14:53:47;4.70;;;1.35;;
36001;SDS011;22070;50.922;5.430;2022-08-02T14:56:13;1.77;;;1.30;;
36001;SDS011;22070;50.922;5.430;2022-08-02T14:58:39;2.05;;;1.10;;
36001;SDS011;22070;50.922;5.430;2022-08-02T15:01:04;1.20;;;1.10;;
36001;SDS011;22070;50.922;5.430;2022-08-02T15:03:30;2.40;;;1.10;;
36001;SDS011;22070;50.922;5.430;2022-08-02T15:05:56;1.27;;;1.17;;
36001;SDS011;22070;50.922;5.430;2022-08-02T15:08:21;3.88;;;1.38;;
36001;SDS011;22070;50.922;5.430;2022-08-02T15:10:47;2.78;;;1.13;;
36001;SDS011;22070;50.922;5.430;2022-08-02T15:13:13;1.20;;;1.10;;
36001;SDS011;22070;50.922;5.430;2022-08-02T15:15:38;3.10;;;1.02;;
36001;SDS011;22070;50.922;5.430;2022-08-02T15:18:04;2.22;;;1.27;;
36001;SDS011;22070;50.922;5.430;2022-08-02T15:20:32;1.77;;;1.17;;
36001;SDS011;22070;50.922;5.430;2022-08-02T15:22:58;1.05;;;1.05;;
36001;SDS011;22070;50.922;5.430;2022-08-02T15:25:24;1.42;;;1.33;;
36001;SDS011;22070;50.922;5.430;2022-08-02T15:27:50;3.10;;;1.25;;
36001;SDS011;22070;50.922;5.430;2022-08-02T15:30:16;2.55;;;1.17;;
36001;SDS011;22070;50.922;5.430;2022-08-02T15:32:41;2.85;;;1.02;;
36001;SDS011;22070;50.922;5.430;2022-08-02T15:35:07;1.23;;;1.13;;
36001;SDS011;22070;50.922;5.430;2022-08-02T15:37:33;4.38;;;1.30;;
36001;SDS011;22070;50.922;5.430;2022-08-02T15:39:58;1.45;;;1.25;;
36001;SDS011;22070;50.922;5.430;2022-08-02T15:44:50;2.85;;;1.20;;
36001;SDS011;22070;50.922;5.430;2022-08-02T15:47:16;1.17;;;1.10;;
36001;SDS011;22070;50.922;5.430;2022-08-02T15:49:43;1.15;;;1.02;;
36001;SDS011;22070;50.922;5.430;2022-08-02T15:52:11;1.20;;;1.10;;
36001;SDS011;22070;50.922;5.430;2022-08-02T15:54:37;0.90;;;0.90;;
36001;SDS011;22070;50.922;5.430;2022-08-02T15:57:02;3.00;;;1.20;;